Vizconde de Eza — EAXB — position and weather

sailwx.info

Track history (hours):
 
Tides and Currents Weather Stations Pressure Air Temp Water Temp Dewpoint Dewpoint Depression Visibility Wind Speed Wind Dir Waves Ship Positions

Oceanographic research ship Vizconde de Eza (Spain)

Detailed information on ship capabilities available from University of Delaware's Ocean Information Center.

Last reported at 2019-Sep-20 06:49 UTC. Time now 2019-Sep-20 10:39 UTC.
Position N 53°15' W 009°03'.

Length 53 m; draft 5.8 m.

Type: Other ship. MMSI: 224582000.

Date/timePositionNaut miles runAvg speedWind from/ knotsBaromVisibWave heightAir tempDewpointWater temp
2019-Sep-20 06:49N 53°15' W 009°03'4 2.2
2019-Sep-20 04:57N 53°13' W 009°09'12 4.5
2019-Sep-20 02:24N 53°12' W 009°28'1 3.2
2019-Sep-20 02:00N 53°12' W 009°30'2 3.7
2019-Sep-20 01:23N 53°11' W 009°34'2 4.2
2019-Sep-20 00:53N 53°11' W 009°37'2 4.2
2019-Sep-20 00:25N 53°12' W 009°41'2 4.0
2019-Sep-20 00:00N 53°12' W 009°43'3 4.1
2019-Sep-19 23:22N 53°12' W 009°48'1 3.9
2019-Sep-19 23:00N 53°12' W 009°50'3 5.2
2019-Sep-19 22:29N 53°12' W 009°55'3 5.4
2019-Sep-19 22:00N 53°13' W 009°59'4 6.6
2019-Sep-19 21:25N 53°13' W 010°05'410.3
2019-Sep-19 20:59N 53°15' W 010°12'510.4
2019-Sep-19 20:30N 53°18' W 010°19'610.5
2019-Sep-19 19:57N 53°22' W 010°26'511.0
2019-Sep-19 19:30N 53°25' W 010°32'610.8
2019-Sep-19 18:59N 53°28' W 010°40'511.1
2019-Sep-19 18:30N 53°32' W 010°47'511.0
2019-Sep-19 18:00N 53°35' W 010°54'611.1
2019-Sep-19 17:31N 53°38' W 011°01'611.2
2019-Sep-19 17:00N 53°42' W 011°09'7 9.3
2019-Sep-19 16:13N 53°46' W 011°19'1 1.1
2019-Sep-19 15:41N 53°47' W 011°18'0 1.4
2019-Sep-19 15:30N 53°47' W 011°18'2 4.0
2019-Sep-19 14:58N 53°49' W 011°18'5 7.8
2019-Sep-19 14:23N 53°51' W 011°25'5 9.1
2019-Sep-19 13:52N 53°52' W 011°32'4 7.5
2019-Sep-19 13:22N 53°53' W 011°38'0 0.4
2019-Sep-19 12:44N 53°53' W 011°39'11 4.5
2019-Sep-19 10:24N 53°48' W 011°55'1 1.9
2019-Sep-19 09:46N 53°47' W 011°56'10 6.1
2019-Sep-19 08:08N 53°54' W 012°09'0 0.0
2019-Sep-19 07:59N 53°54' W 012°09'3 2.4
2019-Sep-19 06:46N 53°52' W 012°13'18 3.0
2019-Sep-19 00:50N 53°58' W 012°42'1 3.7
2019-Sep-19 00:30N 53°59' W 012°44'3 3.6
2019-Sep-18 23:42N 53°60' W 012°49'3 3.2
2019-Sep-18 22:46N 54°01' W 012°54'2 3.5
2019-Sep-18 22:05N 54°01' W 012°58'1 3.4
2019-Sep-18 21:52N 54°02' W 012°57'2 3.4
2019-Sep-18 21:16N 54°04' W 012°57'1 3.6
2019-Sep-18 20:58N 54°05' W 012°56'8 1.6
2019-Sep-18 16:02N 53°57' W 012°56'0 0.4
2019-Sep-18 15:13N 53°57' W 012°57'3 3.3
2019-Sep-18 14:24N 53°55' W 012°56'511.0
2019-Sep-18 13:59N 53°53' W 012°48'3 1.4
2019-Sep-18 12:01N 53°50' W 012°46'14 7.7
2019-Sep-18 10:09N 53°48' W 013°10'1 2.0
2019-Sep-18 09:28N 53°48' W 013°13'3 4.5
2019-Sep-18 08:46N 53°47' W 013°18'30 2.0
2019-Sep-17 17:16N 53°21' W 013°43'  
Track history (hours):
 
Tides and Currents Weather Stations Pressure Air Temp Water Temp Dewpoint Dewpoint Depression Visibility Wind Speed Wind Dir Waves Ship Positions

Oceanographic research ship Vizconde de Eza (Spain)

Detailed information on ship capabilities available from University of Delaware's Ocean Information Center.

Last reported at 2019-Sep-20 06:49 UTC. Time now 2019-Sep-20 10:39 UTC.
Position N 53°15' W 009°03'.

Length 53 m; draft 5.8 m.

Type: Other ship. MMSI: 224582000.

Date/timePositionNaut miles runAvg speedWind from/ knotsBaromVisibWave heightAir tempDewpointWater temp
2019-Sep-20 06:49N 53°15' W 009°03'4 2.2
2019-Sep-20 04:57N 53°13' W 009°09'12 4.5
2019-Sep-20 02:24N 53°12' W 009°28'1 3.2
2019-Sep-20 02:00N 53°12' W 009°30'2 3.7
2019-Sep-20 01:23N 53°11' W 009°34'2 4.2
2019-Sep-20 00:53N 53°11' W 009°37'2 4.2
2019-Sep-20 00:25N 53°12' W 009°41'2 4.0
2019-Sep-20 00:00N 53°12' W 009°43'3 4.1
2019-Sep-19 23:22N 53°12' W 009°48'1 3.9
2019-Sep-19 23:00N 53°12' W 009°50'3 5.2
2019-Sep-19 22:29N 53°12' W 009°55'3 5.4
2019-Sep-19 22:00N 53°13' W 009°59'4 6.6
2019-Sep-19 21:25N 53°13' W 010°05'410.3
2019-Sep-19 20:59N 53°15' W 010°12'510.4
2019-Sep-19 20:30N 53°18' W 010°19'610.5
2019-Sep-19 19:57N 53°22' W 010°26'511.0
2019-Sep-19 19:30N 53°25' W 010°32'610.8
2019-Sep-19 18:59N 53°28' W 010°40'511.1
2019-Sep-19 18:30N 53°32' W 010°47'511.0
2019-Sep-19 18:00N 53°35' W 010°54'611.1
2019-Sep-19 17:31N 53°38' W 011°01'611.2
2019-Sep-19 17:00N 53°42' W 011°09'7 9.3
2019-Sep-19 16:13N 53°46' W 011°19'1 1.1
2019-Sep-19 15:41N 53°47' W 011°18'0 1.4
2019-Sep-19 15:30N 53°47' W 011°18'2 4.0
2019-Sep-19 14:58N 53°49' W 011°18'5 7.8
2019-Sep-19 14:23N 53°51' W 011°25'5 9.1
2019-Sep-19 13:52N 53°52' W 011°32'4 7.5
2019-Sep-19 13:22N 53°53' W 011°38'0 0.4
2019-Sep-19 12:44N 53°53' W 011°39'11 4.5
2019-Sep-19 10:24N 53°48' W 011°55'1 1.9
2019-Sep-19 09:46N 53°47' W 011°56'10 6.1
2019-Sep-19 08:08N 53°54' W 012°09'0 0.0
2019-Sep-19 07:59N 53°54' W 012°09'3 2.4
2019-Sep-19 06:46N 53°52' W 012°13'18 3.0
2019-Sep-19 00:50N 53°58' W 012°42'1 3.7
2019-Sep-19 00:30N 53°59' W 012°44'3 3.6
2019-Sep-18 23:42N 53°60' W 012°49'3 3.2
2019-Sep-18 22:46N 54°01' W 012°54'2 3.5
2019-Sep-18 22:05N 54°01' W 012°58'1 3.4
2019-Sep-18 21:52N 54°02' W 012°57'2 3.4
2019-Sep-18 21:16N 54°04' W 012°57'1 3.6
2019-Sep-18 20:58N 54°05' W 012°56'8 1.6
2019-Sep-18 16:02N 53°57' W 012°56'0 0.4
2019-Sep-18 15:13N 53°57' W 012°57'3 3.3
2019-Sep-18 14:24N 53°55' W 012°56'511.0
2019-Sep-18 13:59N 53°53' W 012°48'3 1.4
2019-Sep-18 12:01N 53°50' W 012°46'14 7.7
2019-Sep-18 10:09N 53°48' W 013°10'1 2.0
2019-Sep-18 09:28N 53°48' W 013°13'3 4.5
2019-Sep-18 08:46N 53°47' W 013°18'30 2.0
2019-Sep-17 17:16N 53°21' W 013°43'  

Dump ship's entire track history